Time;durP1;ratioP1;P1;durP2;ratioP2;P2;SDS_P1;SDS_P2;PMS_P1;PMS_P2;Temp;Humidity;BMP_temperature;BMP_pressure;BME280_temperature;BME280_humidity;BME280_pressure;Samples;Min_cycle;Max_cycle;Signal;HPM_P1;HPM_P2
2022/06/08 00:06:42;;;;;;;2.43;0.50;;;;;;;;;;21044124;28;20218;-78
2022/06/08 00:16:44;;;;;;;0.80;0.40;;;;;;;;;;21042948;28;20236;-75
2022/06/08 00:26:46;;;;;;;0.40;0.33;;;;;;;;;;21043016;28;20212;-74
2022/06/08 00:36:48;;;;;;;0.77;0.40;;;19.50;99.90;;;;;;21040783;28;20188;-74
2022/06/08 00:46:51;;;;;;;1.83;0.60;;;;;;;;;;21022961;28;20268;-74
2022/06/08 00:56:56;;;;;;;1.00;0.40;;;;;;;;;;20787055;22;20599;-71
2022/06/08 01:06:59;;;;;;;0.30;0.30;;;;;;;;;;20701645;28;20698;-70
2022/06/08 01:17:06;;;;;;;0.63;0.40;;;;;;;;;;20620737;28;20210;-70
2022/06/08 01:27:20;;;;;;;1.97;0.47;;;;;;;;;;20700715;28;20225;-70
2022/06/08 01:37:56;;;;;;;1.10;0.57;;;;;;;;;;20635212;28;20260;-71
2022/06/08 01:48:01;;;;;;;1.83;0.80;;;19.00;99.90;;;;;;20615414;28;20221;-71
2022/06/08 01:58:15;;;;;;;0.47;0.40;;;;;;;;;;20698133;28;20207;-71
2022/06/08 02:08:37;;;;;;;0.87;0.50;;;;;;;;;;20683396;28;20301;-71
2022/06/08 02:18:46;;;;;;;0.80;0.50;;;18.70;99.90;;;;;;20712827;28;20220;-70
2022/06/08 02:28:55;;;;;;;0.40;0.37;;;18.80;99.90;;;;;;20694690;28;20238;-71
2022/06/08 02:39:10;;;;;;;0.37;0.30;;;18.60;99.90;;;;;;20664349;28;20210;-71
2022/06/08 02:49:12;;;;;;;0.60;0.43;;;;;;;;;;20679358;28;20719;-74
2022/06/08 02:59:15;;;;;;;0.47;0.40;;;;;;;;;;20637978;28;20224;-74
2022/06/08 03:09:23;;;;;;;2.10;0.50;;;;;;;;;;20640514;28;20774;-73
2022/06/08 03:19:32;;;;;;;4.43;0.70;;;18.20;99.90;;;;;;20611832;28;20684;-74
2022/06/08 03:29:36;;;;;;;0.43;0.30;;;;;;;;;;20676091;28;20301;-73
2022/06/08 03:39:43;;;;;;;1.20;0.70;;;;;;;;;;20698951;28;20229;-74
2022/06/08 03:49:45;;;;;;;1.00;0.53;;;;;;;;;;20605741;28;20229;-74
2022/06/08 03:59:48;;;;;;;2.03;0.60;;;18.10;99.90;;;;;;20677578;28;20218;-73
2022/06/08 04:09:51;;;;;;;0.90;0.50;;;;;;;;;;20686447;28;20212;-73
2022/06/08 04:19:54;;;;;;;1.00;0.50;;;;;;;;;;20703915;28;20232;-72
2022/06/08 04:29:57;;;;;;;2.03;0.60;;;;;;;;;;20687459;28;20221;-74
2022/06/08 04:40:00;;;;;;;1.23;0.57;;;;;;;;;;20621163;28;20209;-74
2022/06/08 04:50:05;;;;;;;1.07;0.60;;;17.90;99.90;;;;;;20685610;28;20510;-71
2022/06/08 05:00:10;;;;;;;0.80;0.40;;;;;;;;;;20669542;28;20212;-71
2022/06/08 05:10:13;;;;;;;2.17;0.50;;;;;;;;;;20632529;28;20292;-69
2022/06/08 05:20:17;;;;;;;0.77;0.40;;;;;;;;;;20699793;28;20205;-70
2022/06/08 05:30:19;;;;;;;0.97;0.50;;;18.50;99.90;;;;;;20619046;28;20616;-72
2022/06/08 05:40:22;;;;;;;0.60;0.40;;;;;;;;;;20675924;28;20224;-72
2022/06/08 05:50:25;;;;;;;1.90;0.50;;;;;;;;;;20686919;28;20588;-72
2022/06/08 06:00:34;;;;;;;1.80;0.60;;;;;;;;;;20684877;28;20204;-72
2022/06/08 06:10:38;;;;;;;1.03;0.50;;;18.70;99.90;;;;;;20617387;28;20278;-73
2022/06/08 06:20:43;;;;;;;2.17;0.57;;;19.20;99.90;;;;;;20683540;28;20266;-72
2022/06/08 06:30:51;;;;;;;1.93;0.40;;;;;;;;;;20672507;28;20224;-73
2022/06/08 06:41:17;;;;;;;0.97;0.47;;;;;;;;;;20696924;28;20247;-75
2022/06/08 06:51:22;;;;;;;1.37;0.37;;;;;;;;;;20705496;22;20224;-74
2022/06/08 07:01:24;;;;;;;0.90;0.47;;;;;;;;;;20817826;28;20756;-74
2022/06/08 07:11:35;;;;;;;1.40;0.40;;;19.80;99.90;;;;;;20815087;28;20228;-75
2022/06/08 07:21:58;;;;;;;1.63;0.60;;;;;;;;;;20808405;28;20350;-76
2022/06/08 07:32:00;;;;;;;3.63;0.70;;;;;;;;;;20807516;28;20214;-75
2022/06/08 07:42:03;;;;;;;1.37;0.50;;;;;;;;;;20787958;28;20208;-74
2022/06/08 07:52:07;;;;;;;0.50;0.30;;;20.10;99.90;;;;;;20832872;28;20262;-77
2022/06/08 08:02:09;;;;;;;0.83;0.50;;;;;;;;;;20812389;28;20213;-75
2022/06/08 08:12:12;;;;;;;1.03;0.47;;;;;;;;;;20796100;28;20219;-75
2022/06/08 08:22:15;;;;;;;1.90;0.50;;;;;;;;;;20810920;28;20340;-74
2022/06/08 08:32:17;;;;;;;1.30;0.60;;;;;;;;;;20809405;28;20287;-75
2022/06/08 08:42:22;;;;;;;1.10;0.60;;;;;;;;;;20826683;28;20204;-75
2022/06/08 08:52:43;;;;;;;1.35;0.60;;;;;;;;;;20826123;28;20704;-75
2022/06/08 09:13:20;;;;;;;1.05;0.40;;;22.50;99.90;;;;;;20796682;28;20224;-74
2022/06/08 09:23:28;;;;;;;1.00;0.40;;;;;;;;;;20846461;28;20200;-75
2022/06/08 09:33:37;;;;;;;1.45;0.40;;;23.30;99.90;;;;;;20826144;28;20218;-76
2022/06/08 09:43:48;;;;;;;4.07;0.50;;;23.20;99.90;;;;;;20790861;28;20754;-77
2022/06/08 09:54:05;;;;;;;0.95;0.40;;;;;;;;;;20808409;28;20224;-76
2022/06/08 10:04:31;;;;;;;0.95;0.30;;;23.80;99.90;;;;;;20855909;28;20213;-77
2022/06/08 10:14:33;;;;;;;1.02;0.63;;;;;;;;;;20850594;28;20783;-75
2022/06/08 10:24:49;;;;;;;0.45;0.30;;;;;;;;;;20813658;28;20258;-77
2022/06/08 10:34:54;;;;;;;1.15;0.50;;;;;;;;;;20813130;28;20258;-76
2022/06/08 10:44:59;;;;;;;1.58;0.50;;;24.50;99.90;;;;;;20831043;28;20230;-75
2022/06/08 10:55:17;;;;;;;1.10;0.43;;;;;;;;;;20827486;28;20262;-75
2022/06/08 11:05:44;;;;;;;0.52;0.40;;;24.10;99.90;;;;;;20812186;28;20623;-75
2022/06/08 11:15:48;;;;;;;1.00;0.45;;;24.20;99.90;;;;;;20810960;28;20221;-76
2022/06/08 11:25:53;;;;;;;1.95;0.40;;;;;;;;;;20810645;28;20265;-76
2022/06/08 11:35:55;;;;;;;1.10;0.40;;;;;;;;;;20792710;28;20208;-75
2022/06/08 11:45:58;;;;;;;4.95;0.80;;;;;;;;;;20823747;28;20221;-75
2022/06/08 11:56:51;;;;;;;1.17;0.40;;;23.90;99.90;;;;;;20808367;28;20306;-75
2022/06/08 12:06:56;;;;;;;0.80;0.40;;;;;;;;;;20810242;28;20700;-75
2022/06/08 12:17:04;;;;;;;0.98;0.32;;;23.90;99.90;;;;;;20800505;28;20210;-76
2022/06/08 12:27:11;;;;;;;0.85;0.40;;;23.70;95.80;;;;;;20794248;28;20224;-76
2022/06/08 12:37:29;;;;;;;0.50;0.40;;;;;;;;;;20796418;28;20212;-76
2022/06/08 12:47:42;;;;;;;1.58;0.45;;;23.20;99.90;;;;;;20827600;28;20579;-75
2022/06/08 12:57:44;;;;;;;2.08;0.77;;;;;;;;;;20917064;22;20226;-80
2022/06/08 13:07:47;;;;;;;3.85;0.47;;;22.90;99.90;;;;;;21000490;28;20764;-79
2022/06/08 13:17:49;;;;;;;0.98;0.32;;;22.90;99.90;;;;;;20996207;28;20569;-78
2022/06/08 13:27:54;;;;;;;1.45;0.40;;;;;;;;;;20979758;28;20289;-79
2022/06/08 13:37:58;;;;;;;1.50;0.60;;;;;;;;;;21028160;28;20209;-80
2022/06/08 13:48:06;;;;;;;2.38;0.65;;;;;;;;;;20935011;28;20218;-78
2022/06/08 13:58:09;;;;;;;1.10;0.30;;;;;;;;;;20875236;28;20215;-79
2022/06/08 14:18:42;;;;;;;1.27;0.50;;;;;;;;;;20891645;28;20211;-78
2022/06/08 14:28:47;;;;;;;0.63;0.45;;;;;;;;;;20861956;28;20272;-78
2022/06/08 14:38:50;;;;;;;1.70;0.47;;;;;;;;;;20886769;28;20223;-76
2022/06/08 14:48:51;;;;;;;1.20;0.50;;;;;;;;;;20905319;28;20557;-77
2022/06/08 14:59:17;;;;;;;0.93;0.50;;;;;;;;;;20917884;28;20237;-77
2022/06/08 15:09:22;;;;;;;0.82;0.50;;;;;;;;;;20906457;28;20213;-77
2022/06/08 15:19:35;;;;;;;1.10;0.35;;;;;;;;;;20904485;28;20198;-77
2022/06/08 15:29:37;;;;;;;1.73;0.68;;;;;;;;;;20924327;28;20275;-79
2022/06/08 15:39:38;;;;;;;0.30;0.20;;;;;;;;;;21002827;28;20208;-78
2022/06/08 15:49:42;;;;;;;1.00;0.20;;;;;;;;;;20979160;28;20223;-78
2022/06/08 15:59:47;;;;;;;2.83;0.50;;;;;;;;;;20963128;28;20231;-77
2022/06/08 16:09:49;;;;;;;1.02;0.50;;;;;;;;;;20996375;28;20231;-77
2022/06/08 16:19:51;;;;;;;1.30;0.40;;;;;;;;;;20955507;28;20253;-77
2022/06/08 16:29:53;;;;;;;0.77;0.37;;;;;;;;;;20967126;28;20215;-79
2022/06/08 16:39:55;;;;;;;1.03;0.30;;;;;;;;;;20980824;28;20215;-78
2022/06/08 16:49:56;;;;;;;0.70;0.40;;;;;;;;;;20989172;28;20232;-78
2022/06/08 16:59:58;;;;;;;0.67;0.40;;;;;;;;;;20967920;28;20587;-79
2022/06/08 17:10:00;;;;;;;1.37;0.50;;;;;;;;;;20972291;28;20599;-78
2022/06/08 17:20:04;;;;;;;0.90;0.40;;;;;;;;;;20979921;28;20617;-77
2022/06/08 17:30:08;;;;;;;0.57;0.37;;;20.40;99.90;;;;;;20954582;28;20224;-78
2022/06/08 17:40:10;;;;;;;0.40;0.20;;;;;;;;;;20964240;28;20215;-78
2022/06/08 17:50:15;;;;;;;1.70;0.50;;;;;;;;;;20988768;28;20637;-77
2022/06/08 18:00:37;;;;;;;4.00;0.60;;;;;;;;;;20945796;28;20575;-79
2022/06/08 18:10:41;;;;;;;1.50;0.47;;;;;;;;;;20973073;28;20239;-79
2022/06/08 18:20:45;;;;;;;1.77;0.53;;;;;;;;;;20929707;28;20279;-79
2022/06/08 18:30:47;;;;;;;1.10;0.30;;;;;;;;;;20979266;28;20222;-79
2022/06/08 18:40:48;;;;;;;0.77;0.40;;;;;;;;;;20984531;28;20202;-79
2022/06/08 18:50:53;;;;;;;0.80;0.30;;;;;;;;;;20998625;28;20224;-78
2022/06/08 19:01:19;;;;;;;1.50;0.40;;;;;;;;;;20977593;22;20235;-72
2022/06/08 19:11:22;;;;;;;1.30;0.40;;;;;;;;;;20871971;28;20642;-72
2022/06/08 19:21:25;;;;;;;1.47;0.50;;;;;;;;;;20937822;28;20255;-73
2022/06/08 19:31:36;;;;;;;0.57;0.50;;;;;;;;;;20804350;28;20260;-71
2022/06/08 19:41:51;;;;;;;2.63;0.60;;;19.70;99.90;;;;;;20804140;28;20224;-73
2022/06/08 19:51:52;;;;;;;0.40;0.37;;;19.70;99.90;;;;;;20854156;28;20247;-74
2022/06/08 20:01:56;;;;;;;1.30;0.40;;;;;;;;;;20838570;28;20225;-72
2022/06/08 20:12:04;;;;;;;0.50;0.30;;;;;;;;;;20883772;28;20265;-72
2022/06/08 20:22:09;;;;;;;0.77;0.40;;;;;;;;;;20848804;28;20215;-71
2022/06/08 20:32:11;;;;;;;1.37;0.40;;;;;;;;;;20852313;28;20220;-73
2022/06/08 20:42:15;;;;;;;1.50;0.40;;;19.40;99.90;;;;;;20850390;28;20234;-72
2022/06/08 20:52:19;;;;;;;0.30;0.30;;;;;;;;;;20853040;28;20587;-74
2022/06/08 21:02:37;;;;;;;0.37;0.20;;;;;;;;;;20852740;28;20232;-72
2022/06/08 21:12:41;;;;;;;0.67;0.40;;;;;;;;;;20890951;28;20723;-74
2022/06/08 21:22:43;;;;;;;0.27;0.23;;;;;;;;;;20856709;28;20585;-72
2022/06/08 21:32:45;;;;;;;0.23;0.20;;;;;;;;;;20857135;28;20592;-74
2022/06/08 21:42:48;;;;;;;0.97;0.40;;;;;;;;;;20856199;28;20218;-72
2022/06/08 21:52:59;;;;;;;0.40;0.30;;;;;;;;;;20857356;28;20232;-72
2022/06/08 22:03:00;;;;;;;0.60;0.30;;;;;;;;;;20850363;28;20756;-72
2022/06/08 22:13:04;;;;;;;0.47;0.30;;;;;;;;;;20870661;28;20918;-72
2022/06/08 22:23:15;;;;;;;2.90;0.30;;;18.90;99.90;;;;;;20854405;28;20207;-72
2022/06/08 22:33:27;;;;;;;0.33;0.30;;;;;;;;;;20869770;28;20296;-72
2022/06/08 22:43:30;;;;;;;0.50;0.20;;;;;;;;;;20867542;28;20277;-72
2022/06/08 22:53:33;;;;;;;0.50;0.50;;;;;;;;;;20868905;28;20235;-72
2022/06/08 23:03:35;;;;;;;0.83;0.77;;;;;;;;;;20864891;28;20227;-72
2022/06/08 23:13:38;;;;;;;0.47;0.23;;;;;;;;;;20875404;28;20223;-72
2022/06/08 23:23:41;;;;;;;0.87;0.40;;;;;;;;;;20867039;28;20624;-72
2022/06/08 23:33:43;;;;;;;0.77;0.30;;;;;;;;;;20866034;28;20224;-72
2022/06/08 23:43:45;;;;;;;0.70;0.40;;;;;;;;;;20881362;28;20224;-72
2022/06/08 23:53:48;;;;;;;0.53;0.20;;;;;;;;;;20870929;28;20226;-72
